createdAt,value
2017-06-30T00:00:30.338Z,21.25
2017-06-30T00:01:30.981Z,21.27
2017-06-30T00:02:31.871Z,21.17
2017-06-30T00:03:32.514Z,21.29
2017-06-30T00:04:33.157Z,21.22
2017-06-30T00:05:33.798Z,21.15
2017-06-30T00:06:34.437Z,21.21
2017-06-30T00:07:35.086Z,21.25
2017-06-30T00:08:35.729Z,21.30
2017-06-30T00:09:36.370Z,21.32
2017-06-30T00:10:37.264Z,21.17
2017-06-30T00:11:37.910Z,21.32
2017-06-30T00:12:38.608Z,21.21
2017-06-30T00:13:39.253Z,21.25
2017-06-30T00:14:39.894Z,21.30
2017-06-30T00:15:40.536Z,21.29
2017-06-30T00:16:41.178Z,21.36
2017-06-30T00:17:41.820Z,21.37
2017-06-30T00:18:42.811Z,21.35
2017-06-30T00:19:43.455Z,21.32
2017-06-30T00:20:44.094Z,21.37
2017-06-30T00:21:44.736Z,21.40
2017-06-30T00:22:45.381Z,21.33
2017-06-30T00:23:46.025Z,21.33
2017-06-30T00:24:46.664Z,21.33
2017-06-30T00:25:47.304Z,21.40
2017-06-30T00:26:47.946Z,21.37
2017-06-30T00:27:48.889Z,21.36
2017-06-30T00:28:49.527Z,21.36
2017-06-30T00:29:50.171Z,21.42
2017-06-30T00:30:50.813Z,21.33
2017-06-30T00:31:51.457Z,21.29
2017-06-30T00:32:52.095Z,21.39
2017-06-30T00:33:52.736Z,21.25
2017-06-30T00:34:53.379Z,21.32
2017-06-30T00:35:54.221Z,21.37
2017-06-30T00:36:54.863Z,21.37
2017-06-30T00:37:55.503Z,21.35
2017-06-30T00:38:56.145Z,21.32
2017-06-30T00:39:56.785Z,21.33
2017-06-30T00:40:57.426Z,21.25
2017-06-30T00:41:58.069Z,21.24
2017-06-30T00:42:58.711Z,21.25
2017-06-30T00:43:59.853Z,21.29
2017-06-30T00:45:00.497Z,21.27
2017-06-30T00:46:01.139Z,21.24
2017-06-30T00:47:01.783Z,21.30
2017-06-30T00:48:02.424Z,21.29
2017-06-30T00:49:03.068Z,21.30
2017-06-30T00:50:03.707Z,21.27
2017-06-30T00:51:04.351Z,21.29
2017-06-30T00:52:05.193Z,21.35
2017-06-30T00:53:05.836Z,21.27
2017-06-30T00:54:06.478Z,21.30
2017-06-30T00:55:07.118Z,21.30
2017-06-30T00:56:07.760Z,21.25
2017-06-30T00:57:08.400Z,21.30
2017-06-30T00:58:09.040Z,21.30
2017-06-30T00:59:09.683Z,21.30
2017-06-30T01:00:10.476Z,21.30
2017-06-30T01:01:11.118Z,21.30
2017-06-30T01:02:11.760Z,21.33
2017-06-30T01:03:12.403Z,21.30
2017-06-30T01:04:13.045Z,21.32
2017-06-30T01:05:13.689Z,21.33
2017-06-30T01:06:14.328Z,21.32
2017-06-30T01:07:14.971Z,21.30
2017-06-30T01:08:15.613Z,21.35
2017-06-30T01:09:16.453Z,21.33
2017-06-30T01:10:17.096Z,21.35
2017-06-30T01:11:17.736Z,21.29
2017-06-30T01:12:18.378Z,21.30
2017-06-30T01:13:19.022Z,21.32
2017-06-30T01:14:19.664Z,21.36
2017-06-30T01:15:20.304Z,21.30
2017-06-30T01:16:20.946Z,21.27
2017-06-30T01:17:21.738Z,21.29
2017-06-30T01:18:22.384Z,21.32
2017-06-30T01:19:23.024Z,21.24
2017-06-30T01:20:23.665Z,21.24
2017-06-30T01:21:24.309Z,21.25
2017-06-30T01:22:24.953Z,21.20
2017-06-30T01:23:25.595Z,21.17
2017-06-30T01:24:26.233Z,21.15
2017-06-30T01:25:27.076Z,21.17
2017-06-30T01:26:27.718Z,21.22
2017-06-30T01:27:28.360Z,21.17
2017-06-30T01:28:29.001Z,21.21
2017-06-30T01:29:29.642Z,21.09
2017-06-30T01:30:30.285Z,21.27
2017-06-30T01:31:30.926Z,21.15
2017-06-30T01:32:31.566Z,21.14
2017-06-30T01:33:32.409Z,21.12
2017-06-30T01:34:33.051Z,21.15
2017-06-30T01:35:33.693Z,21.11
2017-06-30T01:36:34.333Z,21.15
2017-06-30T01:37:34.975Z,21.12
2017-06-30T01:38:35.617Z,21.09
2017-06-30T01:39:36.260Z,21.09
2017-06-30T01:40:36.900Z,21.15
2017-06-30T01:41:37.540Z,21.15
2017-06-30T01:42:38.332Z,21.06
2017-06-30T01:43:38.975Z,21.15
2017-06-30T01:44:39.614Z,21.17
2017-06-30T01:45:40.256Z,21.12
2017-06-30T01:46:40.898Z,21.11
2017-06-30T01:47:41.538Z,21.12
2017-06-30T01:48:42.130Z,21.20
2017-06-30T01:49:42.772Z,21.15
2017-06-30T01:50:43.612Z,21.20
2017-06-30T01:51:44.257Z,21.09
2017-06-30T01:52:44.900Z,21.20
2017-06-30T01:53:45.541Z,21.15
2017-06-30T01:54:46.183Z,21.17
2017-06-30T01:55:46.822Z,21.14
2017-06-30T01:56:47.463Z,21.14
2017-06-30T01:57:48.104Z,21.15
2017-06-30T01:58:48.946Z,21.06
2017-06-30T01:59:49.586Z,21.14
2017-06-30T02:00:50.226Z,21.18
2017-06-30T02:01:50.868Z,21.11
2017-06-30T02:02:51.510Z,21.18
2017-06-30T02:03:52.151Z,21.15
2017-06-30T02:04:52.794Z,21.15
2017-06-30T02:05:53.434Z,21.12
2017-06-30T02:06:54.224Z,21.11
2017-06-30T02:07:54.867Z,21.14
2017-06-30T02:08:55.510Z,21.14
2017-06-30T02:09:56.152Z,21.12
2017-06-30T02:10:56.792Z,21.15
2017-06-30T02:11:57.433Z,21.20
2017-06-30T02:12:58.026Z,21.15
2017-06-30T02:13:58.670Z,21.09
2017-06-30T02:14:59.511Z,21.12
2017-06-30T02:16:00.156Z,21.12
2017-06-30T02:17:00.795Z,21.17
2017-06-30T02:18:01.435Z,21.11
2017-06-30T02:19:02.081Z,21.12
2017-06-30T02:20:02.726Z,21.14
2017-06-30T02:21:03.365Z,21.07
2017-06-30T02:22:04.005Z,21.14
2017-06-30T02:23:04.648Z,21.15
2017-06-30T02:24:05.488Z,21.12
2017-06-30T02:25:06.135Z,21.15
2017-06-30T02:26:06.774Z,21.12
2017-06-30T02:27:07.414Z,21.14
2017-06-30T02:28:08.054Z,21.14
2017-06-30T02:29:08.696Z,21.20
2017-06-30T02:30:09.337Z,21.22
2017-06-30T02:31:09.980Z,21.15
2017-06-30T02:32:10.920Z,21.15
2017-06-30T02:33:11.563Z,21.14
2017-06-30T02:34:12.205Z,21.09
2017-06-30T02:35:12.843Z,21.12
2017-06-30T02:36:13.487Z,21.15
2017-06-30T02:37:14.126Z,21.11
2017-06-30T02:38:14.770Z,21.11
2017-06-30T02:39:15.412Z,21.09
2017-06-30T02:40:16.204Z,21.11
2017-06-30T02:41:16.845Z,21.14
2017-06-30T02:42:17.488Z,21.15
2017-06-30T02:43:18.131Z,21.11
2017-06-30T02:44:18.773Z,21.15
2017-06-30T02:45:19.413Z,21.12
2017-06-30T02:46:20.054Z,21.09
2017-06-30T02:47:20.695Z,21.17
2017-06-30T02:48:21.541Z,21.09
2017-06-30T02:49:22.179Z,21.11
2017-06-30T02:50:22.819Z,21.15
2017-06-30T02:51:23.459Z,21.06
2017-06-30T02:52:24.101Z,21.03
2017-06-30T02:53:24.744Z,21.00
2017-06-30T02:54:25.445Z,21.03
2017-06-30T02:55:26.086Z,21.03
2017-06-30T02:56:26.728Z,21.00
2017-06-30T02:57:27.570Z,21.03
2017-06-30T02:58:28.210Z,20.99
2017-06-30T02:59:28.854Z,20.95
2017-06-30T03:00:29.492Z,20.96
2017-06-30T03:01:30.133Z,20.92
2017-06-30T03:02:30.777Z,21.02
2017-06-30T03:03:31.419Z,21.00
2017-06-30T03:04:32.060Z,20.93
2017-06-30T03:05:32.901Z,21.07
2017-06-30T03:06:33.542Z,20.97
2017-06-30T03:07:34.187Z,20.95
2017-06-30T03:08:34.830Z,20.92
2017-06-30T03:09:35.471Z,20.92
2017-06-30T03:10:36.115Z,20.96
2017-06-30T03:11:36.753Z,20.88
2017-06-30T03:12:37.397Z,20.85
2017-06-30T03:13:38.238Z,20.88
2017-06-30T03:14:38.879Z,20.88
2017-06-30T03:15:39.520Z,20.90
2017-06-30T03:16:40.162Z,20.85
2017-06-30T03:17:40.805Z,20.87
2017-06-30T03:18:41.446Z,20.85
2017-06-30T03:19:42.086Z,20.96
2017-06-30T03:20:42.731Z,20.96
2017-06-30T03:21:43.573Z,20.97
2017-06-30T03:22:44.214Z,21.02
2017-06-30T03:23:44.856Z,20.95
2017-06-30T03:24:45.496Z,20.99
2017-06-30T03:25:46.138Z,20.92
2017-06-30T03:26:46.780Z,20.99
2017-06-30T03:27:47.421Z,20.93
2017-06-30T03:28:48.062Z,20.90
2017-06-30T03:29:48.855Z,20.85
2017-06-30T03:30:49.554Z,20.87
2017-06-30T03:31:50.196Z,20.87
2017-06-30T03:32:50.837Z,20.93
2017-06-30T03:33:51.482Z,20.87
2017-06-30T03:34:52.120Z,20.87
2017-06-30T03:35:52.763Z,20.85
2017-06-30T03:36:53.404Z,20.92
2017-06-30T03:37:54.046Z,20.88
2017-06-30T03:38:54.888Z,20.92
2017-06-30T03:39:55.527Z,20.85
2017-06-30T03:40:56.170Z,20.84
2017-06-30T03:41:56.813Z,20.96
2017-06-30T03:42:57.454Z,20.87
2017-06-30T03:43:58.093Z,20.95
2017-06-30T03:44:58.736Z,20.87
2017-06-30T03:45:59.379Z,20.96
2017-06-30T03:47:00.221Z,20.87
2017-06-30T03:48:00.862Z,20.87
2017-06-30T03:49:01.502Z,20.90
2017-06-30T03:50:02.145Z,20.85
2017-06-30T03:51:02.789Z,20.88
2017-06-30T03:52:03.428Z,20.93
2017-06-30T03:53:04.070Z,20.92
2017-06-30T03:54:04.713Z,20.85
2017-06-30T03:55:05.802Z,20.87
2017-06-30T03:56:06.444Z,20.92
2017-06-30T03:57:07.084Z,20.90
2017-06-30T03:58:07.731Z,20.93
2017-06-30T03:59:08.373Z,20.84
2017-06-30T04:00:09.013Z,20.92
2017-06-30T04:01:09.655Z,20.84
2017-06-30T04:02:10.298Z,20.87
2017-06-30T04:03:11.142Z,20.92
2017-06-30T04:04:11.783Z,20.87
2017-06-30T04:05:12.423Z,20.88
2017-06-30T04:06:13.065Z,20.96
2017-06-30T04:07:13.707Z,20.87
2017-06-30T04:08:14.349Z,20.92
2017-06-30T04:09:14.994Z,20.88
2017-06-30T04:10:15.629Z,20.90
2017-06-30T04:11:16.273Z,20.95
2017-06-30T04:12:17.164Z,20.90
2017-06-30T04:13:17.808Z,20.93
2017-06-30T04:14:18.453Z,20.87
2017-06-30T04:15:19.096Z,20.87
2017-06-30T04:16:19.735Z,20.82
2017-06-30T04:17:20.376Z,20.88
2017-06-30T04:18:21.019Z,20.85
2017-06-30T04:19:21.660Z,20.80
2017-06-30T04:20:22.500Z,20.87
2017-06-30T04:21:23.151Z,20.87
2017-06-30T04:22:23.789Z,20.87
2017-06-30T04:23:24.430Z,20.85
2017-06-30T04:24:25.073Z,20.82
2017-06-30T04:25:25.712Z,20.87
2017-06-30T04:26:26.355Z,20.88
2017-06-30T04:27:26.997Z,20.96
2017-06-30T04:28:27.789Z,20.82
2017-06-30T04:29:28.430Z,20.84
2017-06-30T04:30:29.072Z,20.77
2017-06-30T04:31:29.714Z,20.72
2017-06-30T04:32:30.356Z,20.80
2017-06-30T04:33:30.996Z,20.84
2017-06-30T04:34:31.636Z,20.74
2017-06-30T04:35:32.278Z,20.82
2017-06-30T04:36:33.121Z,20.72
2017-06-30T04:37:33.760Z,20.74
2017-06-30T04:38:34.402Z,20.82
2017-06-30T04:39:35.041Z,20.77
2017-06-30T04:40:35.683Z,20.72
2017-06-30T04:41:36.325Z,20.77
2017-06-30T04:42:36.966Z,20.81
2017-06-30T04:43:37.609Z,20.77
2017-06-30T04:44:38.399Z,20.80
2017-06-30T04:45:39.043Z,20.74
2017-06-30T04:46:39.685Z,20.80
2017-06-30T04:47:40.330Z,20.80
2017-06-30T04:48:40.973Z,20.80
2017-06-30T04:49:41.611Z,20.80
2017-06-30T04:50:42.251Z,20.81
2017-06-30T04:51:42.894Z,20.78
2017-06-30T04:52:43.534Z,20.81
2017-06-30T04:53:44.376Z,20.74
2017-06-30T04:54:45.016Z,20.80
2017-06-30T04:55:45.659Z,20.72
2017-06-30T04:56:46.301Z,20.72
2017-06-30T04:57:46.943Z,20.72
2017-06-30T04:58:47.582Z,20.77
2017-06-30T04:59:48.225Z,20.62
2017-06-30T05:00:48.867Z,20.65
2017-06-30T05:01:49.709Z,20.72
2017-06-30T05:02:50.349Z,20.59
2017-06-30T05:03:50.990Z,20.66
2017-06-30T05:04:51.632Z,20.72
2017-06-30T05:05:52.277Z,20.75
2017-06-30T05:06:52.918Z,20.78
2017-06-30T05:07:53.556Z,20.75
2017-06-30T05:08:54.148Z,20.72
2017-06-30T05:09:54.989Z,20.78
2017-06-30T05:10:55.634Z,20.75
2017-06-30T05:11:56.273Z,20.84
2017-06-30T05:12:56.916Z,20.78
2017-06-30T05:13:57.558Z,20.81
2017-06-30T05:14:58.200Z,20.78
2017-06-30T05:15:58.841Z,20.77
2017-06-30T05:16:59.488Z,20.75
2017-06-30T05:18:00.274Z,20.70
2017-06-30T05:19:00.918Z,20.72
2017-06-30T05:20:01.559Z,20.72
2017-06-30T05:21:02.204Z,20.80
2017-06-30T05:22:02.846Z,20.78
2017-06-30T05:23:03.486Z,20.72
2017-06-30T05:24:04.125Z,20.77
2017-06-30T05:25:04.769Z,20.75
2017-06-30T05:26:05.408Z,20.75
2017-06-30T05:27:06.349Z,20.72
2017-06-30T05:28:06.991Z,20.78
2017-06-30T05:29:07.633Z,20.72
2017-06-30T05:30:08.277Z,20.74
2017-06-30T05:31:08.916Z,20.77
2017-06-30T05:32:09.508Z,20.75
2017-06-30T05:33:10.148Z,20.77
2017-06-30T05:34:10.793Z,20.77
2017-06-30T05:35:11.687Z,20.81
2017-06-30T05:36:12.325Z,20.84
2017-06-30T05:37:12.966Z,20.85
2017-06-30T05:38:13.957Z,20.88
2017-06-30T05:39:14.598Z,20.92
2017-06-30T05:40:15.240Z,21.00
2017-06-30T05:41:15.880Z,21.02
2017-06-30T05:42:16.522Z,21.02
2017-06-30T05:43:17.315Z,20.96
2017-06-30T05:44:17.955Z,20.96
2017-06-30T05:45:18.599Z,20.95
2017-06-30T05:46:19.242Z,21.09
2017-06-30T05:47:19.885Z,21.06
2017-06-30T05:48:20.524Z,21.07
2017-06-30T05:49:21.167Z,21.06
2017-06-30T05:50:21.806Z,21.11
2017-06-30T05:51:22.801Z,21.06
2017-06-30T05:52:23.442Z,21.02
2017-06-30T05:53:24.141Z,21.05
2017-06-30T05:54:24.782Z,21.07
2017-06-30T05:55:25.424Z,21.03
2017-06-30T05:56:26.063Z,21.05
2017-06-30T05:57:26.707Z,20.96
2017-06-30T05:58:27.350Z,21.00
2017-06-30T05:59:28.142Z,20.99
2017-06-30T06:00:28.782Z,20.97
2017-06-30T06:01:29.424Z,20.99
2017-06-30T06:02:30.068Z,20.88
2017-06-30T06:03:30.709Z,20.93
2017-06-30T06:04:31.349Z,20.87
2017-06-30T06:05:31.992Z,20.93
2017-06-30T06:06:32.631Z,20.92
2017-06-30T06:07:33.271Z,20.84
2017-06-30T06:08:34.165Z,20.88
2017-06-30T06:09:34.805Z,20.88
2017-06-30T06:10:35.449Z,20.88
2017-06-30T06:11:36.089Z,20.80
2017-06-30T06:12:36.730Z,20.87
2017-06-30T06:13:37.370Z,20.82
2017-06-30T06:14:38.012Z,20.93
2017-06-30T06:15:38.653Z,20.77
2017-06-30T06:16:39.600Z,20.88
2017-06-30T06:17:40.295Z,20.80
2017-06-30T06:18:40.939Z,20.87
2017-06-30T06:19:41.579Z,20.88
2017-06-30T06:20:42.219Z,20.88
2017-06-30T06:21:42.862Z,20.82
2017-06-30T06:22:43.502Z,20.87
2017-06-30T06:23:44.145Z,20.84
2017-06-30T06:24:44.985Z,20.75
2017-06-30T06:25:45.629Z,20.80
2017-06-30T06:26:46.266Z,20.78
2017-06-30T06:27:46.911Z,20.77
2017-06-30T06:28:47.549Z,20.77
2017-06-30T06:29:48.191Z,20.78
2017-06-30T06:30:48.832Z,20.82
2017-06-30T06:31:49.477Z,20.81
2017-06-30T06:32:50.318Z,20.82
2017-06-30T06:33:50.959Z,20.93
2017-06-30T06:34:51.599Z,20.92
2017-06-30T06:35:52.242Z,20.85
2017-06-30T06:36:52.899Z,20.90
2017-06-30T06:37:53.524Z,20.90
2017-06-30T06:38:54.166Z,20.87
2017-06-30T06:39:54.807Z,20.85
2017-06-30T06:40:55.950Z,20.88
2017-06-30T06:41:56.593Z,20.96
2017-06-30T06:42:57.236Z,20.88
2017-06-30T06:43:57.875Z,20.92
2017-06-30T06:44:58.518Z,20.93
2017-06-30T06:45:59.158Z,20.92
2017-06-30T06:46:59.801Z,20.85
2017-06-30T06:48:00.441Z,20.88
2017-06-30T06:49:01.083Z,20.92
2017-06-30T06:50:01.927Z,20.95
2017-06-30T06:51:02.568Z,20.96
2017-06-30T06:52:03.210Z,20.93
2017-06-30T06:53:03.848Z,20.93
2017-06-30T06:54:04.491Z,21.00
2017-06-30T06:55:05.135Z,20.97
2017-06-30T06:56:05.776Z,20.97
2017-06-30T06:57:06.415Z,21.06
2017-06-30T06:58:07.256Z,21.06
2017-06-30T06:59:07.899Z,20.96
2017-06-30T07:00:08.542Z,20.97
2017-06-30T07:01:09.191Z,21.07
2017-06-30T07:02:09.833Z,21.02
2017-06-30T07:03:10.472Z,21.05
2017-06-30T07:04:11.113Z,20.97
2017-06-30T07:05:11.753Z,20.93
2017-06-30T07:06:12.594Z,20.96
2017-06-30T07:07:13.237Z,20.95
2017-06-30T07:08:13.876Z,20.97
2017-06-30T07:09:14.517Z,21.11
2017-06-30T07:10:15.163Z,20.93
2017-06-30T07:11:15.802Z,20.96
2017-06-30T07:12:16.443Z,21.00
2017-06-30T07:13:17.085Z,20.97
2017-06-30T07:14:17.928Z,20.93
2017-06-30T07:15:18.570Z,21.00
2017-06-30T07:16:19.209Z,21.09
2017-06-30T07:17:19.853Z,20.99
2017-06-30T07:18:20.495Z,20.96
2017-06-30T07:19:21.139Z,21.00
2017-06-30T07:20:21.778Z,20.87
2017-06-30T07:21:22.418Z,20.88
2017-06-30T07:22:23.062Z,20.95
2017-06-30T07:23:23.901Z,20.87
2017-06-30T07:24:24.544Z,20.92
2017-06-30T07:25:25.186Z,20.85
2017-06-30T07:26:25.825Z,20.85
2017-06-30T07:27:26.469Z,20.90
2017-06-30T07:28:27.109Z,20.85
2017-06-30T07:29:27.749Z,20.87
2017-06-30T07:30:28.392Z,20.85
2017-06-30T07:31:29.187Z,20.95
2017-06-30T07:32:29.825Z,20.84
2017-06-30T07:33:30.465Z,20.82
2017-06-30T07:34:31.107Z,20.87
2017-06-30T07:35:31.750Z,20.92
2017-06-30T07:36:32.390Z,20.88
2017-06-30T07:37:33.030Z,20.92
2017-06-30T07:38:33.674Z,20.82
2017-06-30T07:39:34.516Z,20.84
2017-06-30T07:40:35.156Z,20.78
2017-06-30T07:41:35.797Z,20.92
2017-06-30T07:42:36.437Z,20.90
2017-06-30T07:43:37.081Z,20.87
2017-06-30T07:44:37.723Z,20.78
2017-06-30T07:45:38.364Z,20.84
2017-06-30T07:46:39.008Z,20.80
2017-06-30T07:47:39.849Z,20.78
2017-06-30T07:48:40.491Z,20.84
2017-06-30T07:49:41.132Z,20.81
2017-06-30T07:50:41.774Z,20.90
2017-06-30T07:51:42.418Z,20.87
2017-06-30T07:52:43.063Z,20.95
2017-06-30T07:53:43.710Z,20.78
2017-06-30T07:54:44.346Z,20.78
2017-06-30T07:55:45.187Z,20.75
2017-06-30T07:56:45.829Z,20.81
2017-06-30T07:57:46.471Z,20.77
2017-06-30T07:58:47.115Z,20.72
2017-06-30T07:59:47.758Z,20.81
2017-06-30T08:00:48.401Z,20.85
2017-06-30T08:01:49.043Z,20.87
2017-06-30T08:02:49.685Z,20.85
2017-06-30T08:03:50.329Z,20.90
2017-06-30T08:04:51.171Z,20.93
2017-06-30T08:05:51.817Z,20.85
2017-06-30T08:06:52.460Z,20.77
2017-06-30T08:07:53.100Z,20.75
2017-06-30T08:08:53.740Z,20.62
2017-06-30T08:09:54.383Z,20.69
2017-06-30T08:10:55.027Z,20.66
2017-06-30T08:11:55.669Z,20.63
2017-06-30T08:12:56.512Z,20.62
2017-06-30T08:13:57.153Z,20.60
2017-06-30T08:14:57.794Z,20.55
2017-06-30T08:15:58.436Z,20.51
2017-06-30T08:16:59.076Z,20.50
2017-06-30T08:17:59.720Z,20.58
2017-06-30T08:19:00.366Z,20.55
2017-06-30T08:20:01.007Z,20.55
2017-06-30T08:21:01.847Z,20.44
2017-06-30T08:22:02.488Z,20.44
2017-06-30T08:23:03.129Z,20.41
2017-06-30T08:24:03.773Z,20.43
2017-06-30T08:25:04.416Z,20.43
2017-06-30T08:26:05.059Z,20.43
2017-06-30T08:27:05.701Z,20.37
2017-06-30T08:28:06.339Z,20.39
2017-06-30T08:29:07.181Z,20.28
2017-06-30T08:30:07.825Z,20.36
2017-06-30T08:31:08.466Z,20.32
2017-06-30T08:32:09.110Z,20.29
2017-06-30T08:33:09.749Z,20.24
2017-06-30T08:34:10.388Z,20.31
2017-06-30T08:35:11.030Z,20.28
2017-06-30T08:36:11.673Z,20.22
2017-06-30T08:37:12.314Z,20.25
2017-06-30T08:38:13.107Z,20.16
2017-06-30T08:39:13.748Z,20.14
2017-06-30T08:40:14.388Z,20.14
2017-06-30T08:41:15.032Z,20.14
2017-06-30T08:42:15.676Z,20.18
2017-06-30T08:43:16.319Z,20.07
2017-06-30T08:44:16.957Z,20.06
2017-06-30T08:45:17.599Z,20.04
2017-06-30T08:46:18.439Z,20.04
2017-06-30T08:47:19.085Z,20.03
2017-06-30T08:48:19.727Z,20.09
2017-06-30T08:49:20.368Z,20.02
2017-06-30T08:50:21.007Z,19.99
2017-06-30T08:51:21.648Z,20.07
2017-06-30T08:52:22.290Z,20.14
2017-06-30T08:53:22.930Z,20.04
2017-06-30T08:54:23.722Z,20.10
2017-06-30T08:55:24.363Z,20.06
2017-06-30T08:56:25.009Z,20.03
2017-06-30T08:57:25.645Z,20.03
2017-06-30T08:58:26.286Z,20.07
2017-06-30T08:59:26.930Z,20.03
2017-06-30T09:00:27.573Z,20.07
2017-06-30T09:01:28.213Z,20.16
2017-06-30T09:02:29.055Z,20.06
2017-06-30T09:03:29.695Z,20.19
2017-06-30T09:04:30.339Z,20.19
2017-06-30T09:05:30.982Z,20.19
2017-06-30T09:06:31.627Z,20.25
2017-06-30T09:07:32.267Z,20.19
2017-06-30T09:08:32.907Z,20.19
2017-06-30T09:09:33.550Z,20.24
2017-06-30T09:10:34.543Z,20.21
2017-06-30T09:11:35.185Z,20.24
2017-06-30T09:12:35.824Z,20.25
2017-06-30T09:13:36.465Z,20.25
2017-06-30T09:14:37.109Z,20.25
2017-06-30T09:15:37.751Z,20.22
2017-06-30T09:16:38.395Z,20.18
2017-06-30T09:17:39.038Z,20.26
2017-06-30T09:18:39.677Z,20.31
2017-06-30T09:19:40.819Z,20.34
2017-06-30T09:20:41.460Z,20.26
2017-06-30T09:21:42.102Z,20.31
2017-06-30T09:22:42.747Z,20.31
2017-06-30T09:23:43.389Z,20.29
2017-06-30T09:24:44.032Z,20.39
2017-06-30T09:25:44.671Z,20.36
2017-06-30T09:26:45.312Z,20.44
2017-06-30T09:27:46.104Z,20.41
2017-06-30T09:28:46.745Z,20.44
2017-06-30T09:29:47.387Z,20.47
2017-06-30T09:30:48.028Z,20.47
2017-06-30T09:31:48.623Z,20.43
2017-06-30T09:32:49.265Z,20.51
2017-06-30T09:33:49.909Z,20.43
2017-06-30T09:34:50.553Z,20.44
2017-06-30T09:35:51.395Z,20.43
2017-06-30T09:36:52.038Z,20.51
2017-06-30T09:37:52.679Z,20.59
2017-06-30T09:38:53.321Z,20.55
2017-06-30T09:39:53.915Z,20.63
2017-06-30T09:40:54.556Z,20.58
2017-06-30T09:41:55.197Z,20.60
2017-06-30T09:42:55.840Z,20.60
2017-06-30T09:43:56.531Z,20.60
2017-06-30T09:44:57.173Z,20.60
2017-06-30T09:45:57.815Z,20.60
2017-06-30T09:46:58.458Z,20.66
2017-06-30T09:47:59.102Z,20.66
2017-06-30T09:48:59.744Z,20.63
2017-06-30T09:50:00.387Z,20.67
2017-06-30T09:51:01.029Z,20.63
2017-06-30T09:52:01.671Z,20.59
2017-06-30T09:53:02.511Z,20.69
2017-06-30T09:54:03.153Z,20.74
2017-06-30T09:55:03.799Z,20.75
2017-06-30T09:56:04.448Z,20.87
2017-06-30T09:57:05.093Z,20.82
2017-06-30T09:58:05.739Z,21.05
2017-06-30T09:59:06.385Z,21.02
2017-06-30T10:00:07.033Z,20.95
2017-06-30T10:01:07.979Z,21.02
2017-06-30T10:02:08.625Z,21.00
2017-06-30T10:03:09.271Z,21.09
2017-06-30T10:04:09.918Z,21.12
2017-06-30T10:05:10.563Z,21.14
2017-06-30T10:06:11.210Z,21.21
2017-06-30T10:07:11.858Z,21.20
2017-06-30T10:08:12.504Z,21.24
2017-06-30T10:09:13.300Z,21.24
2017-06-30T10:10:13.982Z,21.33
2017-06-30T10:11:14.594Z,21.32
2017-06-30T10:12:15.241Z,21.37
2017-06-30T10:13:15.886Z,21.36
2017-06-30T10:14:16.532Z,21.42
2017-06-30T10:15:17.383Z,21.51
2017-06-30T10:16:18.027Z,21.51
2017-06-30T10:17:18.625Z,21.48
2017-06-30T10:18:19.268Z,21.58
2017-06-30T10:19:19.912Z,21.58
2017-06-30T10:20:20.556Z,21.61
2017-06-30T10:21:21.203Z,21.60
2017-06-30T10:22:21.846Z,21.69
2017-06-30T10:23:22.646Z,21.72
2017-06-30T10:24:23.291Z,21.67
2017-06-30T10:25:23.938Z,21.72
2017-06-30T10:26:24.587Z,21.75
2017-06-30T10:27:25.232Z,21.79
2017-06-30T10:28:25.878Z,21.83
2017-06-30T10:29:26.525Z,21.87
2017-06-30T10:30:27.173Z,21.82
2017-06-30T10:31:27.969Z,21.92
2017-06-30T10:32:28.763Z,21.85
2017-06-30T10:33:29.408Z,21.89
2017-06-30T10:34:30.052Z,21.85
2017-06-30T10:35:30.647Z,21.96
2017-06-30T10:36:31.295Z,21.98
2017-06-30T10:37:31.940Z,21.98
2017-06-30T10:38:32.647Z,21.99
2017-06-30T10:39:33.290Z,22.08
2017-06-30T10:40:34.085Z,22.00
2017-06-30T10:41:34.732Z,22.02
2017-06-30T10:42:35.378Z,22.06
2017-06-30T10:43:36.026Z,22.08
2017-06-30T10:44:36.675Z,22.15
2017-06-30T10:45:37.321Z,22.15
2017-06-30T10:46:37.967Z,22.23
2017-06-30T10:47:38.616Z,22.26
2017-06-30T10:48:39.262Z,22.25
2017-06-30T10:49:40.109Z,22.22
2017-06-30T10:50:40.756Z,22.35
2017-06-30T10:51:41.402Z,22.36
2017-06-30T10:52:42.048Z,22.39
2017-06-30T10:53:42.695Z,22.41
2017-06-30T10:54:43.346Z,22.43
2017-06-30T10:55:44.047Z,22.44
2017-06-30T10:56:44.692Z,22.53
2017-06-30T10:57:45.536Z,22.55
2017-06-30T10:58:46.183Z,22.65
2017-06-30T10:59:46.830Z,22.66
2017-06-30T11:00:47.478Z,22.65
2017-06-30T11:01:48.125Z,22.66
2017-06-30T11:02:48.773Z,22.69
2017-06-30T11:03:49.421Z,22.72
2017-06-30T11:04:50.065Z,22.68
2017-06-30T11:05:50.963Z,22.76
2017-06-30T11:06:51.615Z,22.78
2017-06-30T11:07:52.260Z,22.85
2017-06-30T11:08:52.906Z,22.83
2017-06-30T11:09:53.553Z,22.85
2017-06-30T11:10:54.200Z,22.84
2017-06-30T11:11:54.846Z,22.90
2017-06-30T11:12:55.490Z,22.88
2017-06-30T11:13:56.337Z,22.85
2017-06-30T11:14:56.984Z,22.84
2017-06-30T11:15:57.629Z,22.81
2017-06-30T11:16:58.277Z,22.81
2017-06-30T11:17:58.923Z,22.83
2017-06-30T11:18:59.574Z,22.88
2017-06-30T11:20:00.222Z,22.85
2017-06-30T11:21:00.874Z,22.96
2017-06-30T11:22:01.983Z,22.87
2017-06-30T11:23:02.635Z,22.85
2017-06-30T11:24:03.284Z,22.90
2017-06-30T11:25:03.933Z,22.93
2017-06-30T11:26:04.585Z,22.90
2017-06-30T11:27:05.235Z,22.88
2017-06-30T11:28:05.882Z,23.05
2017-06-30T11:29:06.532Z,23.03
2017-06-30T11:30:07.183Z,23.05
2017-06-30T11:31:08.082Z,22.96
2017-06-30T11:32:08.734Z,23.06
2017-06-30T11:33:09.382Z,23.08
2017-06-30T11:34:10.035Z,23.06
2017-06-30T11:35:10.685Z,23.20
2017-06-30T11:36:11.333Z,23.17
2017-06-30T11:37:11.983Z,23.17
2017-06-30T11:38:12.632Z,23.12
2017-06-30T11:39:13.532Z,23.27
2017-06-30T11:40:14.184Z,23.23
2017-06-30T11:41:14.843Z,23.39
2017-06-30T11:42:15.492Z,23.21
2017-06-30T11:43:16.141Z,23.37
2017-06-30T11:44:16.793Z,23.40
2017-06-30T11:45:17.440Z,23.46
2017-06-30T11:46:18.094Z,23.43
2017-06-30T11:47:18.894Z,23.51
2017-06-30T11:48:19.544Z,23.65
2017-06-30T11:49:20.188Z,23.71
2017-06-30T11:50:20.840Z,23.76
2017-06-30T11:51:21.489Z,23.86
2017-06-30T11:52:22.138Z,23.92
2017-06-30T11:53:22.788Z,24.06
2017-06-30T11:54:23.437Z,24.17
2017-06-30T11:55:24.338Z,24.30
2017-06-30T11:56:24.990Z,24.32
2017-06-30T11:57:25.638Z,24.14
2017-06-30T11:58:26.289Z,24.21
2017-06-30T11:59:26.938Z,24.17
2017-06-30T12:00:27.590Z,24.26
2017-06-30T12:01:28.241Z,24.24
2017-06-30T12:02:28.893Z,24.26
2017-06-30T12:03:29.547Z,24.38
2017-06-30T12:04:30.349Z,24.39
2017-06-30T12:05:31.002Z,24.42
2017-06-30T12:06:31.653Z,24.42
2017-06-30T12:07:32.307Z,24.48
2017-06-30T12:08:32.961Z,24.50
2017-06-30T12:09:33.615Z,24.63
2017-06-30T12:10:34.266Z,24.80
2017-06-30T12:11:34.919Z,24.96
2017-06-30T12:12:35.771Z,25.03
2017-06-30T12:13:36.427Z,25.13
2017-06-30T12:14:37.082Z,25.16
2017-06-30T12:15:37.736Z,25.21
2017-06-30T12:16:38.389Z,25.26
2017-06-30T12:17:39.042Z,25.48
2017-06-30T12:18:39.693Z,25.51
2017-06-30T12:19:40.345Z,25.48
2017-06-30T12:20:41.148Z,25.60
2017-06-30T12:21:41.798Z,25.59
2017-06-30T12:22:42.449Z,25.66
2017-06-30T12:23:43.102Z,25.68
2017-06-30T12:24:43.752Z,25.81
2017-06-30T12:25:44.404Z,25.78
2017-06-30T12:26:45.056Z,25.83
2017-06-30T12:27:45.706Z,25.88
2017-06-30T12:28:46.562Z,25.88
2017-06-30T12:29:47.209Z,26.07
2017-06-30T12:30:47.862Z,26.03
2017-06-30T12:31:48.514Z,26.41
2017-06-30T12:32:49.164Z,26.48
2017-06-30T12:33:49.815Z,26.43
2017-06-30T12:34:50.468Z,26.33
2017-06-30T12:35:51.119Z,26.37
2017-06-30T12:36:51.773Z,26.21
2017-06-30T12:37:52.674Z,26.31
2017-06-30T12:38:53.329Z,26.55
2017-06-30T12:39:54.037Z,26.48
2017-06-30T12:40:54.697Z,26.55
2017-06-30T12:41:55.406Z,26.56
2017-06-30T12:42:56.059Z,26.60
2017-06-30T12:43:56.713Z,26.85
2017-06-30T12:44:57.366Z,26.89
2017-06-30T12:45:58.272Z,27.00
2017-06-30T12:46:58.929Z,27.07
2017-06-30T12:47:59.583Z,27.00
2017-06-30T12:49:00.239Z,27.07
2017-06-30T12:50:00.894Z,27.07
2017-06-30T12:51:01.547Z,27.11
2017-06-30T12:52:02.202Z,27.21
2017-06-30T12:53:02.858Z,27.27
2017-06-30T12:54:03.811Z,27.18
2017-06-30T12:55:04.467Z,27.18
2017-06-30T12:56:05.118Z,27.29
2017-06-30T12:57:05.771Z,27.29
2017-06-30T12:58:06.424Z,27.30
2017-06-30T12:59:07.077Z,27.37
2017-06-30T13:00:07.735Z,27.36
2017-06-30T13:01:08.388Z,27.49